Flight Number: EUR3054 Duration: 10:00
Departure: Amsterdam Schiphol (EHAM) at 07:30 Distance: 4322 Nm
Arrival: Salt Lake City Intl Airport (KSLC) at 17:30 Equipment: B747

Weather Information
Amsterdam Airport Schiphol, Netherlands (EHAM) 52-18N 004-46E -2M May 23, 2018 - 07:55 PM EDT / 2018.05.23 2355 UTC
Wind: from the NE (050 degrees) at 12 MPH (10 KT):0
Visibility: greater than 7 mile(s):0 Temperature: 62 F (17 C) Dew Point: 53 F (12 C) Relative Humidity: 72% Pressure (altimeter): 30.15 in. Hg (1021 hPa)
ob: EHAM 232355Z 05010KT CAVOK 17/12 Q1021 NOSIG cycle: 0
Sunrise: 03:37 Sunset: 19:38 (UTC)

SALT LAKE CITY INTERNATIONAL AIRPORT , UT, United States (KSLC) 40-47N 111-58W 1286M May 23, 2018 - 07:54 PM EDT / 2018.05.23 2354 UTC
Wind: from the S (180 degrees) at 3 MPH (3 KT):0
Visibility: 10 mile(s):0
Sky conditions: mostly cloudy Weather: Cumulonimbus clouds, towering cumulus clouds observed Temperature: 69 F (21 C) Dew Point: 48 F (9 C) Relative Humidity: 46% Pressure (altimeter): 29.95 in. Hg (1014 hPa)
ob: KSLC 232354Z 18003KT 10SM FEW050TCU SCT100 BKN110 21/09 A2995 RMK AO2 SLPNO PK WND 23027/2320 RAB23E46 CB DSNT E-SE AND W TCU E SH VC E AND W cycle: 0
Sunrise: 12:06 Sunset: 02:43 (UTC)

TAF:2018/05/24 00:09 TAF AMD KSLC 240006Z 2400/2506 15006KT P6SM VCSH SCT080 BKN120 FM240200 15009KT P6SM BKN140 FM241900 32008KT P6SM FEW080 SCT150 FM250300 15008KT P6SM SKC

Previous Pireps for this route
Date Aircraft Flight time Fuel used Landing rate On time
2015-01-27B74710.37206753-232Charter
2016-10-22B74710,07198276-194Yes
(pireps marked green are flown by you)

Route map